Time;durP1;ratioP1;P1;durP2;ratioP2;P2;SDS_P1;SDS_P2;PMS_P1;PMS_P2;Temp;Humidity;BMP_temperature;BMP_pressure;BME280_temperature;BME280_humidity;BME280_pressure;Samples;Min_cycle;Max_cycle;Signal;HPM_P1;HPM_P2
2021/11/11 00:01:10;;;;;;;26.45;17.75;;;;;;;5.23;74.09;97226.88;5052174;28;20057;-77
2021/11/11 00:03:38;;;;;;;26.88;18.02;;;;;;;5.21;74.01;97227.97;5052171;28;20048;-77
2021/11/11 00:06:05;;;;;;;24.02;18.45;;;;;;;5.18;72.32;97230.81;5052765;28;20056;-77
2021/11/11 00:08:33;;;;;;;26.42;18.17;;;;;;;5.12;73.00;97227.00;5052419;28;20055;-77
2021/11/11 00:11:00;;;;;;;25.42;17.75;;;;;;;5.12;74.10;97229.59;5052998;28;20059;-77
2021/11/11 00:13:29;;;;;;;25.90;18.85;;;;;;;5.16;74.95;97234.34;5053157;28;20049;-77
2021/11/11 00:15:57;;;;;;;26.77;20.85;;;;;;;5.21;75.28;97241.72;5052730;28;20048;-77
2021/11/11 00:18:24;;;;;;;26.23;20.08;;;;;;;5.23;75.11;97237.22;5052114;28;20518;-77
2021/11/11 00:20:52;;;;;;;28.58;19.83;;;;;;;5.24;75.43;97241.44;5052675;28;20048;-77
2021/11/11 00:23:19;;;;;;;29.13;20.42;;;;;;;5.26;74.87;97238.72;5052049;28;20045;-77
2021/11/11 00:25:47;;;;;;;31.30;20.08;;;;;;;5.19;73.09;97235.84;5051951;28;20064;-77
2021/11/11 00:28:14;;;;;;;31.25;19.95;;;;;;;5.06;71.74;97230.09;5052046;28;20049;-77
2021/11/11 00:30:43;;;;;;;28.88;17.73;;;;;;;4.89;71.37;97234.94;5053414;28;20052;-77
2021/11/11 00:33:11;;;;;;;26.02;17.15;;;;;;;4.81;72.78;97226.19;5053379;28;20075;-77
2021/11/11 00:35:39;;;;;;;23.48;18.27;;;;;;;4.83;74.31;97224.28;5052668;28;20045;-77
2021/11/11 00:38:06;;;;;;;25.40;17.60;;;;;;;4.86;73.62;97224.88;5052483;28;20075;-77
2021/11/11 00:40:35;;;;;;;22.88;15.75;;;;;;;4.81;71.95;97227.03;5052264;28;20057;-77
2021/11/11 00:43:03;;;;;;;23.17;15.13;;;;;;;4.72;71.28;97222.63;5052422;28;20048;-77
2021/11/11 00:45:31;;;;;;;18.08;13.60;;;;;;;4.61;71.31;97220.94;5052297;28;20414;-77
2021/11/11 00:48:01;;;;;;;19.10;12.65;;;;;;;4.53;71.60;97229.34;5059742;22;20140;-76
2021/11/11 00:50:31;;;;;;;19.30;12.98;;;;;;;4.57;73.88;97223.91;5033888;28;20107;-76
2021/11/11 00:52:58;;;;;;;16.67;11.65;;;;;;;4.64;74.11;97219.88;5034855;28;20046;-76
2021/11/11 00:55:26;;;;;;;20.25;14.38;;;;;;;4.71;73.64;97213.25;5034875;28;20049;-76
2021/11/11 00:57:54;;;;;;;17.55;13.32;;;;;;;4.74;73.49;97210.38;5049433;28;20069;-76
2021/11/11 01:00:22;;;;;;;23.52;15.27;;;;;;;4.74;72.19;97213.81;5057165;28;20044;-76
2021/11/11 01:02:51;;;;;;;19.67;14.15;;;;;;;4.68;71.37;97216.06;5055602;28;20053;-76
2021/11/11 01:05:21;;;;;;;19.80;12.70;;;;;;;4.56;70.67;97211.94;5054316;28;20067;-76
2021/11/11 01:07:51;;;;;;;17.05;11.18;;;;;;;4.46;70.77;97215.31;5054958;28;20048;-76
2021/11/11 01:10:20;;;;;;;16.75;10.95;;;;;;;4.39;71.32;97224.50;5053728;28;20049;-76
2021/11/11 01:12:49;;;;;;;18.25;10.55;;;;;;;4.34;72.36;97218.91;5054179;28;20126;-76
2021/11/11 01:15:20;;;;;;;15.13;10.23;;;;;;;4.39;73.08;97210.78;5054527;28;20071;-76
2021/11/11 01:17:48;;;;;;;16.23;10.68;;;;;;;4.46;73.76;97212.72;5054198;28;20106;-76
2021/11/11 01:20:18;;;;;;;13.63;10.25;;;;;;;4.54;73.67;97210.28;5054140;28;20045;-76
2021/11/11 01:22:49;;;;;;;16.50;11.48;;;;;;;4.62;74.25;97208.84;5054124;28;20056;-76
2021/11/11 01:25:18;;;;;;;18.20;12.27;;;;;;;4.68;73.96;97205.72;5054319;28;20060;-76
2021/11/11 01:27:47;;;;;;;18.23;13.18;;;;;;;4.71;73.72;97208.06;5054344;28;20049;-75
2021/11/11 01:30:16;;;;;;;18.95;13.35;;;;;;;4.72;73.83;97207.09;5055211;28;20052;-76
2021/11/11 01:32:43;;;;;;;19.13;15.30;;;;;;;4.75;74.51;97209.44;5057783;28;20060;-76
2021/11/11 01:35:13;;;;;;;23.17;16.35;;;;;;;4.78;74.75;97211.75;5058027;28;20053;-76
2021/11/11 01:37:41;;;;;;;20.48;14.65;;;;;;;4.80;74.62;97212.47;5057742;28;20053;-76
2021/11/11 01:40:11;;;;;;;19.45;14.55;;;;;;;4.81;74.83;97215.84;5060874;28;20056;-76
2021/11/11 01:42:43;;;;;;;20.33;15.02;;;;;;;4.83;75.17;97213.97;5078494;28;20118;-75
2021/11/11 01:45:11;;;;;;;23.05;15.77;;;;;;;4.80;73.94;97204.69;5078576;28;20049;-76
2021/11/11 01:47:40;;;;;;;27.52;16.23;;;;;;;4.70;71.59;97209.00;5068181;28;20060;-76
2021/11/11 01:50:09;;;;;;;18.27;13.90;;;;;;;4.54;71.36;97206.91;5061948;28;20060;-76
2021/11/11 01:52:37;;;;;;;20.30;14.95;;;;;;;4.48;73.21;97215.16;5060057;28;20045;-76
2021/11/11 01:55:07;;;;;;;20.42;14.35;;;;;;;4.47;73.82;97211.75;5058539;28;20053;-75
2021/11/11 01:57:36;;;;;;;24.13;16.33;;;;;;;4.49;75.01;97207.28;5059134;28;20044;-76
2021/11/11 02:00:07;;;;;;;21.17;17.05;;;;;;;4.53;74.77;97207.88;5057935;28;20045;-75
2021/11/11 02:02:35;;;;;;;25.13;17.02;;;;;;;4.56;75.05;97206.78;5057808;28;20099;-76
2021/11/11 02:05:03;;;;;;;22.08;16.15;;;;;;;4.53;72.93;97208.69;5057890;28;20049;-76
2021/11/11 02:07:31;;;;;;;22.92;16.38;;;;;;;4.46;72.41;97204.97;5057539;28;20064;-75
2021/11/11 02:09:58;;;;;;;22.80;16.73;;;;;;;4.41;72.43;97214.03;5057190;28;20049;-76
2021/11/11 02:12:29;;;;;;;23.55;16.98;;;;;;;4.40;73.60;97212.44;5057356;28;20071;-75
2021/11/11 02:14:58;;;;;;;23.23;16.85;;;;;;;4.44;74.60;97218.94;5057042;28;20110;-75
2021/11/11 02:17:27;;;;;;;28.38;18.52;;;;;;;4.48;74.66;97230.66;5059581;28;20051;-76
2021/11/11 02:20:01;;;;;;;27.20;20.95;;;;;;;4.51;75.15;97236.41;5061200;28;20045;-76
2021/11/11 02:22:28;;;;;;;24.95;18.50;;;;;;;4.45;72.47;97244.66;5061089;28;20057;-76
2021/11/11 02:24:56;;;;;;;24.17;18.70;;;;;;;4.40;73.72;97243.41;5059370;28;20049;-75
2021/11/11 02:27:23;;;;;;;24.65;18.75;;;;;;;4.39;73.10;97250.31;5058427;28;20049;-76
2021/11/11 02:29:51;;;;;;;25.92;17.58;;;;;;;4.40;73.12;97244.22;5058064;28;20060;-75
2021/11/11 02:32:19;;;;;;;20.75;15.95;;;;;;;4.31;71.62;97248.41;5057431;28;20076;-76
2021/11/11 02:34:47;;;;;;;18.88;14.55;;;;;;;4.21;71.07;97254.44;5057488;28;20502;-76
2021/11/11 02:37:15;;;;;;;16.38;12.05;;;;;;;4.08;70.10;97254.63;5057819;28;20049;-76
2021/11/11 02:39:43;;;;;;;17.20;12.90;;;;;;;3.90;70.38;97251.78;5057079;28;20052;-76
2021/11/11 02:42:11;;;;;;;15.77;11.50;;;;;;;3.81;70.81;97255.09;5066551;28;20060;-76
2021/11/11 02:44:42;;;;;;;13.77;10.10;;;;;;;3.72;69.97;97243.75;5069911;28;20051;-76
2021/11/11 02:47:10;;;;;;;13.88;10.10;;;;;;;3.63;70.48;97247.88;5061722;28;20056;-76
2021/11/11 02:49:37;;;;;;;13.95;10.23;;;;;;;3.59;71.49;97246.50;5058104;28;20060;-75
2021/11/11 02:52:07;;;;;;;15.45;9.95;;;;;;;3.62;71.00;97243.66;5057896;28;20068;-76
2021/11/11 02:54:37;;;;;;;13.35;9.18;;;;;;;3.58;70.57;97231.13;5063823;28;20056;-76
2021/11/11 02:57:19;;;;;;;15.55;9.55;;;;;;;3.50;70.48;97229.16;5061771;28;20400;-76
2021/11/11 02:59:47;;;;;;;11.27;8.87;;;;;;;3.46;70.92;97220.84;5056595;28;20041;-76
2021/11/11 03:02:21;;;;;;;10.57;8.02;;;;;;;3.48;71.72;97220.72;5056789;28;20289;-75
2021/11/11 03:04:48;;;;;;;13.48;8.35;;;;;;;3.54;72.33;97225.38;5055973;28;20045;-76
2021/11/11 03:07:16;;;;;;;10.02;7.85;;;;;;;3.62;72.43;97220.44;5056406;28;20057;-76
2021/11/11 03:09:45;;;;;;;11.55;7.70;;;;;;;3.67;73.15;97220.06;5056184;28;20060;-76
2021/11/11 03:12:14;;;;;;;13.80;8.68;;;;;;;3.72;72.96;97215.38;5055758;28;20049;-75
2021/11/11 03:14:43;;;;;;;15.80;10.82;;;;;;;3.78;73.24;97206.28;5056395;28;20140;-75
2021/11/11 03:17:12;;;;;;;16.73;10.40;;;;;;;3.84;72.61;97210.97;5055587;28;20049;-76
2021/11/11 03:19:40;;;;;;;14.60;9.32;;;;;;;3.87;71.91;97206.38;5056048;28;20045;-75
2021/11/11 03:22:10;;;;;;;15.35;10.50;;;;;;;3.93;73.38;97207.63;5056654;28;20490;-76
2021/11/11 03:24:40;;;;;;;14.35;10.45;;;;;;;3.99;73.37;97201.16;5056338;28;20045;-75
2021/11/11 03:27:10;;;;;;;15.93;10.68;;;;;;;4.04;74.55;97210.16;5056704;28;20045;-75
2021/11/11 03:29:38;;;;;;;14.43;11.13;;;;;;;4.10;73.92;97208.84;5056094;28;20041;-75
2021/11/11 03:32:08;;;;;;;17.30;12.85;;;;;;;4.08;72.23;97203.78;5056181;28;20049;-76
2021/11/11 03:34:37;;;;;;;21.25;11.85;;;;;;;4.01;70.67;97204.44;5059080;28;20041;-76
2021/11/11 03:37:05;;;;;;;15.55;11.35;;;;;;;3.95;71.29;97208.31;5057656;28;20426;-75
2021/11/11 03:39:33;;;;;;;16.27;12.30;;;;;;;3.97;72.06;97205.63;5055119;28;20060;-75
2021/11/11 03:42:01;;;;;;;15.73;11.00;;;;;;;4.01;72.22;97207.00;5055649;28;20045;-76
2021/11/11 03:44:31;;;;;;;15.00;10.55;;;;;;;4.01;72.03;97214.75;5055622;28;20139;-76
2021/11/11 03:47:02;;;;;;;13.18;10.40;;;;;;;4.04;72.42;97210.16;5055468;28;20056;-76
2021/11/11 03:49:31;;;;;;;16.35;10.75;;;;;;;3.99;70.69;97198.56;5054811;28;20041;-76
2021/11/11 03:51:58;;;;;;;14.73;9.95;;;;;;;3.90;71.05;97203.53;5054892;28;20418;-77
2021/11/11 03:54:27;;;;;;;12.82;10.07;;;;;;;3.86;72.26;97198.75;5055305;28;20065;-76
2021/11/11 03:56:56;;;;;;;14.20;9.40;;;;;;;3.91;72.95;97206.94;5054539;28;20045;-76
2021/11/11 03:59:25;;;;;;;11.40;8.13;;;;;;;3.96;73.33;97197.06;5056005;28;20509;-76
2021/11/11 04:01:55;;;;;;;11.48;7.82;;;;;;;3.93;70.70;97192.16;5055880;28;20498;-76
2021/11/11 04:04:23;;;;;;;11.43;7.88;;;;;;;3.83;70.06;97193.84;5055372;28;20052;-76
2021/11/11 04:06:51;;;;;;;13.13;8.45;;;;;;;3.78;72.38;97188.22;5073885;28;20045;-76
2021/11/11 04:09:18;;;;;;;10.68;7.35;;;;;;;3.84;73.03;97187.75;5074494;28;20059;-76
2021/11/11 04:11:46;;;;;;;11.10;7.40;;;;;;;3.89;72.83;97193.34;5071350;28;20063;-76
2021/11/11 04:14:13;;;;;;;11.13;7.55;;;;;;;3.92;72.73;97193.09;5056411;28;20047;-76
2021/11/11 04:16:42;;;;;;;13.07;7.75;;;;;;;3.91;71.54;97199.19;5054873;28;20052;-76
2021/11/11 04:19:11;;;;;;;11.77;8.45;;;;;;;3.89;72.54;97204.50;5054565;28;20075;-76
2021/11/11 04:21:38;;;;;;;14.68;10.05;;;;;;;3.86;70.97;97201.34;5055197;28;20052;-76
2021/11/11 04:24:06;;;;;;;12.07;9.13;;;;;;;3.79;71.63;97195.03;5055183;28;20060;-76
2021/11/11 04:26:38;;;;;;;17.65;11.35;;;;;;;3.77;71.21;97212.41;5054759;28;20502;-76
2021/11/11 04:29:10;;;;;;;17.73;11.45;;;;;;;3.68;70.50;97211.41;5054745;28;20076;-76
2021/11/11 04:31:42;;;;;;;16.57;10.47;;;;;;;3.59;71.04;97202.63;5055124;28;20068;-76
2021/11/11 04:34:13;;;;;;;19.05;12.18;;;;;;;3.58;72.22;97206.13;5055586;28;20053;-76
2021/11/11 04:37:08;;;;;;;15.48;11.10;;;;;;;3.63;72.86;97204.03;5054814;28;20080;-76
2021/11/11 04:40:03;;;;;;;16.17;9.65;;;;;;;3.65;72.18;97202.16;5054357;28;20056;-76
2021/11/11 04:42:47;;;;;;;15.23;11.07;;;;;;;3.69;73.13;97198.34;5055095;28;20053;-76
2021/11/11 04:48:16;;;;;;;18.60;10.75;;;;;;;3.83;73.80;97209.34;5033771;28;20110;-76
2021/11/11 04:51:07;;;;;;;15.52;9.90;;;;;;;3.88;74.14;97202.84;5055061;28;20427;-76
2021/11/11 05:01:49;;;;;;;10.23;7.95;;;;;;;3.77;74.26;97215.00;5032248;28;20052;-76
2021/11/11 05:04:17;;;;;;;12.23;9.48;;;;;;;3.77;72.69;97215.00;5055998;28;20060;-75
2021/11/11 05:06:46;;;;;;;12.50;9.43;;;;;;;3.77;73.43;97207.25;5058363;28;20052;-75
2021/11/11 05:09:14;;;;;;;14.68;10.55;;;;;;;3.82;73.52;97218.00;5058197;28;20139;-76
2021/11/11 05:11:41;;;;;;;17.20;12.38;;;;;;;3.83;72.57;97220.47;5058525;28;20049;-75
2021/11/11 05:14:09;;;;;;;17.75;13.13;;;;;;;3.82;72.43;97216.25;5059624;28;20454;-76
2021/11/11 05:16:36;;;;;;;18.55;11.38;;;;;;;3.77;71.22;97220.16;5059454;28;20498;-75
2021/11/11 05:19:04;;;;;;;17.85;12.18;;;;;;;3.71;72.70;97221.44;5058868;28;20131;-75
2021/11/11 05:21:32;;;;;;;17.77;13.32;;;;;;;3.73;72.15;97224.72;5058820;28;20533;-75
2021/11/11 05:24:01;;;;;;;20.85;14.13;;;;;;;3.70;71.47;97230.16;5058635;28;20072;-75
2021/11/11 05:26:29;;;;;;;21.10;15.23;;;;;;;3.68;71.49;97226.88;5057782;28;20414;-76
2021/11/11 05:28:56;;;;;;;18.55;13.63;;;;;;;3.65;71.73;97225.38;5058571;28;20045;-76
2021/11/11 05:31:24;;;;;;;21.55;14.68;;;;;;;3.59;70.15;97220.69;5057857;28;20049;-75
2021/11/11 05:33:52;;;;;;;17.65;12.73;;;;;;;3.54;71.85;97221.97;5058201;28;20064;-75
2021/11/11 05:36:19;;;;;;;19.42;14.77;;;;;;;3.58;72.80;97216.47;5057836;28;20410;-75
2021/11/11 05:38:47;;;;;;;20.58;14.13;;;;;;;3.59;71.60;97218.09;5058098;28;20048;-77
2021/11/11 05:41:15;;;;;;;21.23;13.93;;;;;;;3.55;71.82;97216.72;5058720;28;20049;-76
2021/11/11 05:43:43;;;;;;;20.35;13.98;;;;;;;3.51;71.36;97215.31;5059123;28;20053;-77
2021/11/11 05:46:10;;;;;;;17.95;13.02;;;;;;;3.50;72.67;97216.28;5077069;28;20421;-77
2021/11/11 05:48:38;;;;;;;19.15;13.05;;;;;;;3.56;73.71;97215.75;5076434;28;20039;-77
2021/11/11 05:51:06;;;;;;;18.40;12.57;;;;;;;3.59;73.17;97210.38;5075280;28;20064;-77
2021/11/11 05:53:33;;;;;;;24.95;17.05;;;;;;;3.62;73.69;97209.31;5063558;28;20049;-78
2021/11/11 05:56:01;;;;;;;56.13;34.08;;;;;;;3.66;74.04;97214.09;5062007;28;20609;-79
2021/11/11 05:58:30;;;;;;;54.30;32.20;;;;;;;3.69;74.31;97208.66;5061508;28;20057;-78
2021/11/11 06:00:58;;;;;;;38.53;22.67;;;;;;;3.72;74.08;97213.59;5065735;28;20053;-76
2021/11/11 06:03:25;;;;;;;38.50;23.85;;;;;;;3.75;74.42;97222.84;5065319;28;20060;-76
2021/11/11 06:05:53;;;;;;;26.00;18.50;;;;;;;3.73;74.04;97227.31;5058129;28;20056;-79
2021/11/11 06:08:20;;;;;;;26.40;18.55;;;;;;;3.72;73.22;97229.09;5057841;28;20049;-77
2021/11/11 06:10:48;;;;;;;24.60;16.60;;;;;;;3.65;73.57;97222.78;5061162;28;20061;-77
2021/11/11 06:13:15;;;;;;;25.83;16.08;;;;;;;3.66;72.55;97232.16;5057073;28;20049;-77
2021/11/11 06:15:45;;;;;;;26.33;17.55;;;;;;;3.65;73.80;97233.09;5056327;28;20514;-77
2021/11/11 06:18:13;;;;;;;23.40;16.40;;;;;;;3.65;73.28;97238.25;5057264;28;20049;-77
2021/11/11 06:20:45;;;;;;;25.00;17.35;;;;;;;3.61;72.65;97231.72;5056788;28;20048;-77
2021/11/11 06:23:12;;;;;;;23.88;16.70;;;;;;;3.56;71.90;97238.97;5057293;28;20423;-77
2021/11/11 06:25:41;;;;;;;29.45;17.17;;;;;;;3.51;73.25;97238.53;5056994;28;20453;-75
2021/11/11 06:28:09;;;;;;;25.63;16.20;;;;;;;3.55;73.39;97239.13;5056129;28;20048;-76
2021/11/11 06:30:38;;;;;;;30.60;15.95;;;;;;;3.56;73.05;97244.13;5056237;28;20052;-75
2021/11/11 06:33:06;;;;;;;23.23;15.65;;;;;;;3.56;72.50;97240.75;5057488;28;20045;-75
2021/11/11 06:35:34;;;;;;;24.55;17.02;;;;;;;3.58;72.44;97247.41;5063393;28;20049;-74
2021/11/11 06:38:03;;;;;;;21.65;15.55;;;;;;;3.48;71.12;97251.69;5058096;28;20048;-74
2021/11/11 06:40:32;;;;;;;24.38;15.77;;;;;;;3.27;70.82;97249.84;5056831;28;20045;-75
2021/11/11 06:43:01;;;;;;;18.77;14.05;;;;;;;3.20;72.77;97247.88;5057374;28;20049;-75
2021/11/11 06:45:34;;;;;;;22.27;14.60;;;;;;;3.21;72.85;97249.50;5046928;28;20041;-75
2021/11/11 06:48:02;;;;;;;24.80;16.52;;;;;;;3.22;72.55;97246.00;5065657;22;20049;-80
2021/11/11 06:50:30;;;;;;;26.50;16.67;;;;;;;3.22;71.86;97240.84;5038669;28;20069;-82
2021/11/11 06:53:05;;;;;;;27.40;16.42;;;;;;;3.17;72.41;97242.94;5039410;28;20486;-81
2021/11/11 06:55:35;;;;;;;23.58;16.13;;;;;;;3.17;72.61;97243.78;5039591;28;20427;-78
2021/11/11 06:58:04;;;;;;;26.42;15.98;;;;;;;3.18;72.25;97245.41;5038521;28;20057;-79
2021/11/11 07:00:31;;;;;;;21.08;14.60;;;;;;;3.24;73.63;97238.97;5030905;28;20050;-80
2021/11/11 07:02:59;;;;;;;24.63;15.98;;;;;;;3.34;74.25;97242.44;5008540;28;20068;-84
2021/11/11 07:05:27;;;;;;;18.75;14.20;;;;;;;3.42;74.21;97239.25;5018928;28;20489;-81
2021/11/11 07:07:56;;;;;;;19.13;13.27;;;;;;;3.48;74.07;97241.38;5017749;28;20058;-83
2021/11/11 07:10:23;;;;;;;19.67;13.40;;;;;;;3.58;74.55;97237.09;5019030;28;20050;-83
2021/11/11 07:12:51;;;;;;;18.80;12.70;;;;;;;3.68;74.43;97238.00;5019412;28;20429;-81
2021/11/11 07:15:19;;;;;;;19.95;14.00;;;;;;;3.75;73.24;97238.34;5018612;28;20072;-83
2021/11/11 07:17:47;;;;;;;24.92;15.23;;;;;;;3.68;71.89;97244.94;5012980;28;20049;-81
2021/11/11 07:20:16;;;;;;;21.30;14.60;;;;;;;3.61;73.37;97254.13;5017242;28;20050;-77
2021/11/11 07:22:45;;;;;;;20.13;14.52;;;;;;;3.64;74.03;97251.28;5020400;28;20049;-86
2021/11/11 07:25:18;;;;;;;40.63;16.73;;;;;;;3.67;72.52;97244.13;5039271;28;20112;-87
2021/11/11 07:27:46;;;;;;;28.10;15.27;;;;;;;3.65;72.57;97248.59;5021368;28;20050;-81
2021/11/11 07:30:16;;;;;;;25.48;14.95;;;;;;;3.66;72.16;97252.78;5020023;28;20049;-83
2021/11/11 07:32:44;;;;;;;23.42;15.75;;;;;;;3.65;71.88;97255.47;5019060;28;20416;-80
2021/11/11 07:35:12;;;;;;;24.90;16.08;;;;;;;3.62;71.77;97264.28;5017876;28;20057;-83
2021/11/11 07:37:42;;;;;;;25.20;17.25;;;;;;;3.61;71.65;97267.81;5018797;28;20060;-79
2021/11/11 07:40:12;;;;;;;24.65;16.83;;;;;;;3.61;73.06;97262.66;5018545;28;20056;-84
2021/11/11 07:42:41;;;;;;;26.85;16.88;;;;;;;3.63;71.71;97265.94;5019547;28;20428;-81
2021/11/11 07:45:11;;;;;;;24.10;16.45;;;;;;;3.60;71.33;97265.34;5020174;28;20050;-81
2021/11/11 07:47:39;;;;;;;26.20;15.93;;;;;;;3.57;71.40;97256.09;5017625;28;20050;-82
2021/11/11 07:50:08;;;;;;;20.92;15.32;;;;;;;3.60;71.60;97266.16;5016827;28;20058;-85
2021/11/11 07:52:36;;;;;;;25.88;15.88;;;;;;;3.65;71.20;97269.22;5017938;28;20058;-83
2021/11/11 07:55:05;;;;;;;23.10;15.07;;;;;;;3.70;71.25;97267.09;5017501;28;20050;-81
2021/11/11 07:57:33;;;;;;;25.65;15.80;;;;;;;3.72;71.04;97269.56;5018344;28;20443;-80
2021/11/11 08:00:06;;;;;;;21.30;14.73;;;;;;;3.77;71.37;97267.41;5018008;28;20048;-82
2021/11/11 08:02:34;;;;;;;22.67;14.80;;;;;;;3.87;71.27;97272.66;5019051;28;20061;-84
2021/11/11 08:05:02;;;;;;;21.40;14.32;;;;;;;3.94;71.19;97273.81;5018146;28;20053;-83
2021/11/11 08:07:29;;;;;;;19.90;14.32;;;;;;;4.03;70.77;97287.75;5013676;28;20049;-82
2021/11/11 08:09:57;;;;;;;24.60;14.73;;;;;;;4.10;70.53;97287.09;5016135;28;20058;-78
2021/11/11 08:12:24;;;;;;;25.45;16.50;;;;;;;4.17;70.60;97284.03;5014654;28;20057;-82
2021/11/11 08:14:52;;;;;;;29.05;16.27;;;;;;;4.21;70.63;97286.25;5015558;28;20066;-77
2021/11/11 08:17:21;;;;;;;25.23;15.88;;;;;;;4.24;70.96;97286.00;5015483;28;20061;-79
2021/11/11 08:19:53;;;;;;;29.42;15.95;;;;;;;4.30;71.06;97292.41;5015565;28;20050;-79
2021/11/11 08:22:21;;;;;;;23.80;17.27;;;;;;;4.34;73.27;97286.88;5016118;28;20058;-79
2021/11/11 08:24:49;;;;;;;24.35;15.48;;;;;;;4.45;73.71;97286.00;5016507;28;20496;-80
2021/11/11 08:27:18;;;;;;;19.60;13.02;;;;;;;4.58;72.74;97290.16;5014645;28;20057;-77
2021/11/11 08:29:46;;;;;;;19.58;13.32;;;;;;;4.69;71.95;97298.66;5013633;28;20046;-77
2021/11/11 08:32:15;;;;;;;16.30;12.52;;;;;;;4.82;71.84;97301.03;5014325;28;20455;-79
2021/11/11 08:34:46;;;;;;;22.38;12.93;;;;;;;4.97;72.45;97304.09;5014446;28;20046;-80
2021/11/11 08:37:14;;;;;;;17.10;12.25;;;;;;;5.12;72.78;97312.34;5014979;28;20042;-78
2021/11/11 08:39:42;;;;;;;17.40;13.27;;;;;;;5.27;72.94;97310.19;5015675;28;20050;-79
2021/11/11 08:42:11;;;;;;;24.60;13.60;;;;;;;5.40;72.98;97313.41;5015164;28;20048;-78
2021/11/11 08:44:42;;;;;;;24.80;13.85;;;;;;;5.53;71.43;97315.72;5015709;28;20488;-77
2021/11/11 08:47:12;;;;;;;22.80;13.73;;;;;;;5.65;71.04;97314.66;5015227;28;20107;-79
2021/11/11 08:49:39;;;;;;;19.83;13.23;;;;;;;5.83;71.29;97311.44;5016608;28;20050;-78
2021/11/11 08:52:10;;;;;;;18.75;14.10;;;;;;;6.00;70.84;97323.75;5015174;28;20496;-79
2021/11/11 08:54:38;;;;;;;20.10;15.80;;;;;;;6.17;70.26;97325.66;5016338;28;20056;-80
2021/11/11 08:57:07;;;;;;;25.90;18.77;;;;;;;6.36;69.40;97330.03;5018326;28;20137;-77
2021/11/11 08:59:42;;;;;;;26.38;18.48;;;;;;;6.55;68.87;97330.97;5017727;28;20663;-78
2021/11/11 09:02:10;;;;;;;20.88;16.67;;;;;;;6.74;68.31;97327.53;5017768;28;20050;-77
2021/11/11 09:04:38;;;;;;;28.77;18.75;;;;;;;6.94;68.04;97328.31;5018074;28;20132;-78
2021/11/11 09:07:07;;;;;;;22.35;17.75;;;;;;;7.13;67.63;97323.06;5017932;28;20050;-80
2021/11/11 09:09:36;;;;;;;25.65;17.50;;;;;;;7.32;67.41;97323.94;5017224;28;20053;-80
2021/11/11 09:12:04;;;;;;;26.23;17.25;;;;;;;7.53;66.52;97319.31;5018019;28;20050;-78
2021/11/11 09:14:32;;;;;;;25.35;17.92;;;;;;;7.70;66.07;97312.53;5017849;28;20046;-78
2021/11/11 09:17:00;;;;;;;22.33;17.80;;;;;;;7.87;66.38;97310.09;5017042;28;20049;-77
2021/11/11 09:19:27;;;;;;;27.48;18.23;;;;;;;8.01;66.23;97312.19;5017391;28;20496;-79
2021/11/11 09:21:55;;;;;;;27.58;18.80;;;;;;;8.14;64.79;97317.84;5017799;28;20061;-77
2021/11/11 09:24:23;;;;;;;24.25;18.70;;;;;;;8.30;64.63;97311.97;5019228;28;20054;-81
2021/11/11 09:26:52;;;;;;;29.05;17.88;;;;;;;8.47;63.89;97312.94;5024159;28;20052;-83
2021/11/11 09:29:20;;;;;;;27.17;18.35;;;;;;;8.63;64.52;97317.44;5026358;28;20053;-82
2021/11/11 09:31:47;;;;;;;26.95;18.10;;;;;;;8.81;63.89;97314.78;5022677;28;20050;-81
2021/11/11 09:34:15;;;;;;;24.15;17.80;;;;;;;8.96;64.82;97318.47;5020623;28;20052;-82
2021/11/11 09:36:43;;;;;;;24.85;17.23;;;;;;;9.13;63.39;97326.38;5019949;28;20046;-80
2021/11/11 09:39:10;;;;;;;24.50;17.95;;;;;;;9.31;62.70;97326.31;5020388;28;20050;-83
2021/11/11 09:41:40;;;;;;;24.30;16.40;;;;;;;9.52;61.82;97321.50;5018549;28;20056;-83
2021/11/11 09:44:09;;;;;;;22.95;17.70;;;;;;;9.75;61.99;97324.38;5018937;28;20046;-80
2021/11/11 09:46:37;;;;;;;23.85;17.50;;;;;;;9.95;62.50;97317.09;5019180;28;20046;-84
2021/11/11 09:49:05;;;;;;;23.33;16.95;;;;;;;10.14;61.00;97322.97;5018154;28;20050;-82
2021/11/11 09:51:33;;;;;;;26.50;17.33;;;;;;;10.34;61.49;97324.31;5020140;28;20056;-80
2021/11/11 09:54:21;;;;;;;20.80;15.55;;;;;;;10.53;60.77;97328.41;5022948;28;20045;-85
2021/11/11 09:59:38;;;;;;;24.02;17.95;;;;;;;10.83;60.39;97333.94;5021439;28;20472;-81
2021/11/11 10:02:06;;;;;;;25.08;16.85;;;;;;;10.91;59.55;97329.53;5024130;28;20054;-83
2021/11/11 10:04:34;;;;;;;24.58;17.65;;;;;;;11.00;60.45;97330.31;5022839;28;20116;-80
2021/11/11 10:07:04;;;;;;;22.63;16.20;;;;;;;11.12;58.45;97331.59;5023986;28;20049;-80
2021/11/11 10:09:32;;;;;;;21.45;17.08;;;;;;;11.28;58.53;97330.75;5021525;28;20435;-77
2021/11/11 10:12:02;;;;;;;21.98;17.00;;;;;;;11.47;57.35;97321.69;5021169;28;20064;-79
2021/11/11 10:14:33;;;;;;;25.23;17.48;;;;;;;11.69;56.67;97321.91;5021137;28;20074;-77
2021/11/11 10:17:04;;;;;;;22.88;16.67;;;;;;;11.87;55.90;97316.44;5021150;28;20077;-79
2021/11/11 10:19:34;;;;;;;22.95;15.27;;;;;;;12.01;56.70;97322.78;5020846;28;20133;-77
2021/11/11 10:22:06;;;;;;;22.80;17.88;;;;;;;12.14;55.54;97312.56;5019910;28;20045;-76
2021/11/11 10:24:42;;;;;;;20.75;16.15;;;;;;;12.32;56.76;97320.91;5019598;28;20060;-78
2021/11/11 10:27:23;;;;;;;20.17;15.65;;;;;;;12.44;56.74;97316.09;5018993;28;20049;-78
2021/11/11 10:29:53;;;;;;;22.13;16.15;;;;;;;12.51;55.45;97313.59;5019037;28;20050;-80
2021/11/11 10:32:30;;;;;;;24.63;16.25;;;;;;;12.61;53.91;97310.72;5020523;28;20065;-78
2021/11/11 10:35:00;;;;;;;21.23;15.93;;;;;;;12.63;55.48;97308.72;5019998;28;20057;-78
2021/11/11 10:37:34;;;;;;;18.27;15.38;;;;;;;12.67;55.15;97307.41;5020457;28;20658;-79
2021/11/11 10:40:06;;;;;;;21.08;16.52;;;;;;;12.78;53.34;97310.38;5022110;28;20050;-80
2021/11/11 10:42:36;;;;;;;23.38;16.08;;;;;;;12.94;53.35;97298.13;5023326;28;20065;-79
2021/11/11 10:45:08;;;;;;;17.67;14.70;;;;;;;13.10;52.33;97297.16;5023810;28;20061;-82
2021/11/11 10:47:38;;;;;;;19.50;15.35;;;;;;;13.28;52.51;97300.25;5021202;28;20506;-77
2021/11/11 10:50:10;;;;;;;25.27;15.63;;;;;;;13.47;51.23;97303.28;5021816;28;20050;-78
2021/11/11 10:52:40;;;;;;;22.13;15.77;;;;;;;13.63;51.77;97303.09;5022034;28;20054;-79
2021/11/11 10:55:21;;;;;;;23.48;16.17;;;;;;;13.71;50.71;97307.41;5020082;28;20049;-79
2021/11/11 10:57:56;;;;;;;24.30;16.70;;;;;;;13.83;51.02;97298.09;5018963;28;20054;-78
2021/11/11 11:00:30;;;;;;;19.73;16.38;;;;;;;13.91;52.87;97299.78;5018506;28;20064;-80
2021/11/11 11:03:04;;;;;;;20.20;16.55;;;;;;;14.04;51.07;97299.94;5018636;28;20050;-78
2021/11/11 11:05:35;;;;;;;19.92;15.77;;;;;;;14.09;50.34;97291.50;5019396;28;20050;-80
2021/11/11 11:08:06;;;;;;;19.02;16.48;;;;;;;14.15;50.03;97296.00;5019227;28;20049;-78
2021/11/11 11:10:35;;;;;;;20.55;15.43;;;;;;;14.35;52.06;97293.56;5021468;28;20061;-83
2021/11/11 11:13:12;;;;;;;22.33;15.38;;;;;;;14.58;49.94;97298.63;5019662;28;20507;-78
2021/11/11 11:15:46;;;;;;;27.02;15.50;;;;;;;14.70;49.02;97297.09;5018454;28;20041;-76
2021/11/11 11:18:18;;;;;;;22.17;15.88;;;;;;;14.80;48.32;97289.72;5019192;28;20137;-77
2021/11/11 11:20:46;;;;;;;19.50;15.48;;;;;;;15.03;48.30;97286.00;5018990;28;20057;-78
2021/11/11 11:23:18;;;;;;;19.15;15.35;;;;;;;15.15;49.21;97281.84;5021310;28;20057;-80
2021/11/11 11:25:51;;;;;;;19.30;14.48;;;;;;;15.30;48.87;97283.53;5020367;28;20053;-78
2021/11/11 11:28:26;;;;;;;;;;;;;;;15.56;48.50;97272.31;5019160;28;20056;-80
2021/11/11 11:30:56;;;;;;;16.55;13.40;;;;;;;15.64;48.13;97265.06;5019655;28;19925;-77
2021/11/11 11:33:33;;;;;;;18.23;14.30;;;;;;;15.74;47.18;97269.16;5021989;28;20061;-79
2021/11/11 11:36:02;;;;;;;18.42;14.43;;;;;;;15.79;47.40;97272.03;5023291;28;20057;-79
2021/11/11 11:38:31;;;;;;;16.05;13.95;;;;;;;15.81;46.59;97285.81;5024849;28;20056;-77
2021/11/11 11:40:59;;;;;;;16.83;13.73;;;;;;;15.81;46.75;97280.53;5024283;28;20068;-78
2021/11/11 11:43:28;;;;;;;14.80;12.98;;;;;;;15.80;46.18;97273.63;5023346;28;20842;-77
2021/11/11 11:46:11;;;;;;;18.67;14.38;;;;;;;15.76;46.01;97282.94;5023499;28;20046;-78
2021/11/11 11:48:41;;;;;;;16.48;14.38;;;;;;;15.80;46.69;97273.63;5025055;28;20058;-79